Time;durP1;ratioP1;P1;durP2;ratioP2;P2;SDS_P1;SDS_P2;PMS_P1;PMS_P2;Temp;Humidity;BMP_temperature;BMP_pressure;BME280_temperature;BME280_humidity;BME280_pressure;Samples;Min_cycle;Max_cycle;Signal;HPM_P1;HPM_P2
2021/01/14 00:02:25;;;;;;;3.85;2.47;;;3.60;99.90;;;;;;5101369;28;20432;-64
2021/01/14 00:04:51;;;;;;;3.40;2.50;;;3.60;99.90;;;;;;5113154;28;20062;-64
2021/01/14 00:07:17;;;;;;;2.83;2.58;;;3.60;99.90;;;;;;5112288;28;20031;-64
2021/01/14 00:09:43;;;;;;;2.63;2.40;;;3.60;99.90;;;;;;5113470;28;20032;-64
2021/01/14 00:32:54;;;;;;;2.03;1.60;;;3.30;99.90;;;;;;5358649;22;20052;-63
2021/01/14 00:35:19;;;;;;;2.92;1.90;;;3.30;99.90;;;;;;5072376;28;20020;-63
2021/01/14 00:37:51;;;;;;;3.72;1.95;;;3.30;99.90;;;;;;5063112;28;20044;-63
2021/01/14 00:40:22;;;;;;;2.72;1.92;;;3.20;99.90;;;;;;5051620;28;20025;-64
2021/01/14 00:43:01;;;;;;;2.08;1.88;;;3.20;99.90;;;;;;5052250;28;20029;-63
2021/01/14 00:45:28;;;;;;;2.17;1.90;;;3.10;99.90;;;;;;5051553;28;20033;-63
2021/01/14 01:08:02;;;;;;;3.20;2.33;;;3.00;99.90;;;;;;5334558;22;20131;-64
2021/01/14 01:10:29;;;;;;;3.92;2.42;;;3.00;99.90;;;;;;5054116;28;20143;-64
2021/01/14 01:12:56;;;;;;;2.88;2.50;;;3.00;99.90;;;;;;5071527;28;20032;-65
2021/01/14 01:15:22;;;;;;;3.03;2.40;;;3.00;99.90;;;;;;5054049;28;20063;-64
2021/01/14 01:17:48;;;;;;;2.78;2.00;;;3.00;99.90;;;;;;5070784;28;20492;-64
2021/01/14 01:20:14;;;;;;;3.10;2.60;;;3.10;99.90;;;;;;5071586;28;20071;-64
2021/01/14 01:22:40;;;;;;;2.67;2.20;;;3.10;99.90;;;;;;5080452;28;20032;-64
2021/01/14 01:25:06;;;;;;;3.42;2.28;;;3.20;99.90;;;;;;5073100;28;20029;-65
2021/01/14 01:27:32;;;;;;;3.67;2.75;;;3.20;99.90;;;;;;5082113;28;20028;-65
2021/01/14 01:29:57;;;;;;;4.07;2.70;;;3.20;99.90;;;;;;5072607;28;20081;-65
2021/01/14 01:32:23;;;;;;;3.65;2.53;;;3.20;99.90;;;;;;5050004;28;20155;-65
2021/01/14 01:34:49;;;;;;;3.30;2.58;;;3.20;99.90;;;;;;5050343;28;20033;-65
2021/01/14 01:37:14;;;;;;;3.85;3.00;;;3.20;99.90;;;;;;5051379;28;20048;-65
2021/01/14 01:39:40;;;;;;;3.17;2.58;;;3.20;99.90;;;;;;5052916;28;20021;-64
2021/01/14 01:42:06;;;;;;;4.93;2.38;;;3.10;99.90;;;;;;5050715;28;20032;-63
2021/01/14 01:44:32;;;;;;;4.43;2.80;;;3.10;99.90;;;;;;5051585;28;20021;-64
2021/01/14 01:47:05;;;;;;;4.43;3.13;;;3.20;99.90;;;;;;5033194;28;20045;-64
2021/01/14 01:49:35;;;;;;;5.80;2.90;;;3.10;99.90;;;;;;5051767;28;20020;-64
2021/01/14 01:52:04;;;;;;;4.50;2.80;;;3.10;99.90;;;;;;5050836;28;20037;-66
2021/01/14 01:54:32;;;;;;;6.47;2.78;;;3.20;99.90;;;;;;5051214;28;20489;-66
2021/01/14 01:56:58;;;;;;;5.35;3.00;;;3.30;99.90;;;;;;5051244;28;20064;-65
2021/01/14 01:59:25;;;;;;;3.83;2.90;;;3.20;99.90;;;;;;5051999;28;20021;-65
2021/01/14 02:01:51;;;;;;;3.55;2.55;;;3.20;99.90;;;;;;5051549;28;20060;-65
2021/01/14 02:04:17;;;;;;;3.40;2.60;;;3.20;99.90;;;;;;5051385;28;20056;-65
2021/01/14 02:18:54;;;;;;;3.42;2.00;;;3.00;99.90;;;;;;5347781;22;20064;-62
2021/01/14 02:21:23;;;;;;;2.85;1.58;;;3.00;99.90;;;;;;5051191;28;20032;-63
2021/01/14 02:23:49;;;;;;;3.83;2.42;;;3.00;99.90;;;;;;5074484;28;20029;-62
2021/01/14 02:26:20;;;;;;;3.03;2.00;;;3.10;99.90;;;;;;5074816;28;20534;-63
2021/01/14 02:28:46;;;;;;;7.00;1.40;;;3.10;99.90;;;;;;5057647;28;20462;-63
2021/01/14 02:31:13;;;;;;;4.25;2.28;;;3.00;99.90;;;;;;5036747;28;20110;-63
2021/01/14 02:33:39;;;;;;;2.45;1.90;;;3.10;99.90;;;;;;5053763;28;20029;-63
2021/01/14 02:36:05;;;;;;;3.25;1.77;;;3.00;99.90;;;;;;5054356;28;20493;-63
2021/01/14 02:38:31;;;;;;;2.50;1.77;;;3.00;99.90;;;;;;5067299;28;20047;-63
2021/01/14 02:40:57;;;;;;;2.83;2.08;;;2.90;99.90;;;;;;5058494;28;20495;-63
2021/01/14 02:43:22;;;;;;;4.80;2.10;;;2.90;99.90;;;;;;5053726;28;20063;-63
2021/01/14 02:45:48;;;;;;;3.53;2.00;;;2.80;99.90;;;;;;5054942;28;20118;-63
2021/01/14 02:48:19;;;;;;;2.80;2.05;;;2.80;99.90;;;;;;5055367;28;20060;-63
2021/01/14 02:50:47;;;;;;;3.88;2.47;;;2.80;99.90;;;;;;5053931;28;20029;-63
2021/01/14 02:53:14;;;;;;;3.50;2.20;;;2.70;99.90;;;;;;5054307;28;20021;-63
2021/01/14 02:55:40;;;;;;;2.85;2.03;;;2.70;99.90;;;;;;5053390;28;20028;-63
2021/01/14 02:58:06;;;;;;;2.55;2.30;;;2.70;99.90;;;;;;5040326;28;20035;-63
2021/01/14 03:00:33;;;;;;;3.92;1.92;;;2.70;99.90;;;;;;5053590;28;20068;-63
2021/01/14 03:02:59;;;;;;;2.60;2.03;;;2.70;99.90;;;;;;5055299;28;20103;-62
2021/01/14 03:05:25;;;;;;;2.50;2.25;;;2.60;99.90;;;;;;5053824;28;20021;-63
2021/01/14 03:07:50;;;;;;;3.28;2.20;;;2.60;99.90;;;;;;5054024;28;20025;-63
2021/01/14 03:10:16;;;;;;;2.10;1.70;;;2.60;99.90;;;;;;5053600;28;20029;-63
2021/01/14 03:12:41;;;;;;;3.33;2.03;;;2.60;99.90;;;;;;5052620;28;20029;-64
2021/01/14 03:15:10;;;;;;;4.53;2.22;;;2.60;99.90;;;;;;5073966;28;20048;-62
2021/01/14 03:17:36;;;;;;;5.03;2.60;;;2.60;99.90;;;;;;5072588;28;20092;-63
2021/01/14 03:20:04;;;;;;;3.35;2.30;;;2.60;99.90;;;;;;5073456;28;20071;-63
2021/01/14 03:22:30;;;;;;;3.45;2.30;;;2.50;99.90;;;;;;5072964;28;20028;-63
2021/01/14 03:24:56;;;;;;;3.13;2.10;;;2.60;99.90;;;;;;5055395;28;20031;-63
2021/01/14 03:27:22;;;;;;;4.07;2.22;;;2.70;99.90;;;;;;5053382;28;20532;-64
2021/01/14 03:29:48;;;;;;;4.22;2.60;;;2.60;99.90;;;;;;5053547;28;20029;-63
2021/01/14 03:32:13;;;;;;;5.68;2.38;;;2.60;99.90;;;;;;5053791;28;20063;-62
2021/01/14 03:34:39;;;;;;;3.35;2.45;;;2.60;99.90;;;;;;5068050;28;20028;-63
2021/01/14 03:37:05;;;;;;;2.88;2.53;;;2.50;99.90;;;;;;5073281;28;20029;-63
2021/01/14 03:39:31;;;;;;;5.75;2.40;;;2.50;99.90;;;;;;5068216;28;20043;-62
2021/01/14 03:41:58;;;;;;;3.67;2.15;;;2.50;99.90;;;;;;5053672;28;20032;-62
2021/01/14 03:44:24;;;;;;;6.07;2.70;;;2.40;99.90;;;;;;5065908;28;20029;-63
2021/01/14 03:46:50;;;;;;;2.70;2.22;;;2.40;99.90;;;;;;5072877;28;20117;-63
2021/01/14 03:49:17;;;;;;;4.32;2.40;;;2.40;99.90;;;;;;5055180;28;20159;-63
2021/01/14 03:51:44;;;;;;;4.30;2.70;;;2.30;99.90;;;;;;5070855;28;20028;-63
2021/01/14 03:54:11;;;;;;;4.93;2.63;;;2.20;99.90;;;;;;5072781;28;20032;-63
2021/01/14 03:56:39;;;;;;;5.20;3.10;;;2.10;99.90;;;;;;5052609;28;20033;-63
2021/01/14 03:59:05;;;;;;;10.50;3.33;;;2.10;99.90;;;;;;5052959;28;20029;-62
2021/01/14 04:01:32;;;;;;;4.88;3.15;;;2.00;99.90;;;;;;5064639;28;20033;-63
2021/01/14 04:03:57;;;;;;;7.13;3.13;;;2.00;99.90;;;;;;5072806;28;20477;-62
2021/01/14 04:06:34;;;;;;;11.13;3.30;;;2.00;99.90;;;;;;5072574;28;20071;-64
2021/01/14 04:09:00;;;;;;;4.97;2.90;;;1.90;99.90;;;;;;5072640;28;20040;-63
2021/01/14 04:11:26;;;;;;;6.75;3.00;;;1.90;99.90;;;;;;5057037;28;20029;-63
2021/01/14 04:13:52;;;;;;;6.97;3.10;;;1.90;99.90;;;;;;5035058;28;20025;-62
2021/01/14 04:16:18;;;;;;;4.60;2.72;;;1.80;99.90;;;;;;5052575;28;20033;-63
2021/01/14 04:18:44;;;;;;;6.63;3.78;;;1.80;99.90;;;;;;5051598;28;20049;-63
2021/01/14 04:21:09;;;;;;;7.55;3.50;;;1.80;99.90;;;;;;5054039;28;20035;-62
2021/01/14 04:23:35;;;;;;;6.57;3.25;;;1.80;99.90;;;;;;5052081;28;20068;-63
2021/01/14 04:26:01;;;;;;;4.40;3.03;;;1.80;99.90;;;;;;5052376;28;20029;-62
2021/01/14 04:28:27;;;;;;;6.25;3.80;;;1.80;99.90;;;;;;5051756;28;20021;-63
2021/01/14 04:30:53;;;;;;;7.75;4.03;;;1.70;99.90;;;;;;5063789;28;20028;-63
2021/01/14 04:33:18;;;;;;;6.32;3.72;;;1.70;99.90;;;;;;5054643;28;20071;-63
2021/01/14 04:35:47;;;;;;;6.45;3.63;;;1.70;99.90;;;;;;5071409;28;20152;-62
2021/01/14 04:38:14;;;;;;;6.07;3.75;;;1.70;99.90;;;;;;5052282;28;20082;-62
2021/01/14 04:40:40;;;;;;;6.45;3.85;;;1.70;99.90;;;;;;5057556;28;20032;-63
2021/01/14 04:43:07;;;;;;;5.90;3.72;;;1.60;99.90;;;;;;5052655;28;20025;-63
2021/01/14 04:45:33;;;;;;;7.15;4.03;;;1.50;99.90;;;;;;5050718;28;20029;-63
2021/01/14 04:48:01;;;;;;;5.70;4.03;;;1.50;99.90;;;;;;5048795;28;20031;-62
2021/01/14 04:50:28;;;;;;;6.05;3.83;;;1.50;99.90;;;;;;5071525;28;20020;-63
2021/01/14 04:53:00;;;;;;;6.55;4.38;;;1.50;99.90;;;;;;5053969;28;20056;-62
2021/01/14 04:55:29;;;;;;;10.02;4.78;;;1.40;99.90;;;;;;5071257;28;20036;-64
2021/01/14 04:57:55;;;;;;;7.07;3.92;;;1.40;99.90;;;;;;5040318;28;20031;-63
2021/01/14 05:00:27;;;;;;;8.10;4.00;;;1.30;99.90;;;;;;5052130;28;20025;-62
2021/01/14 05:03:02;;;;;;;8.50;4.22;;;1.40;99.90;;;;;;5034461;28;20419;-63
2021/01/14 05:05:31;;;;;;;9.82;4.30;;;1.30;99.90;;;;;;5033523;28;20025;-63
2021/01/14 05:08:05;;;;;;;8.05;4.82;;;1.20;99.90;;;;;;5065687;28;20100;-63
2021/01/14 05:10:33;;;;;;;8.18;4.70;;;1.20;99.90;;;;;;5052841;28;20025;-63
2021/01/14 05:13:00;;;;;;;10.07;4.22;;;1.20;99.90;;;;;;5071895;28;20498;-63
2021/01/14 05:15:27;;;;;;;9.48;4.50;;;1.20;99.90;;;;;;5071442;28;20025;-64
2021/01/14 05:17:57;;;;;;;8.30;4.75;;;1.10;99.90;;;;;;5058457;28;20132;-62
2021/01/14 05:20:24;;;;;;;7.00;4.68;;;1.10;99.90;;;;;;5051734;28;20052;-64
2021/01/14 05:23:01;;;;;;;6.38;4.35;;;1.10;99.90;;;;;;5051684;28;20057;-63
2021/01/14 05:25:27;;;;;;;9.50;4.97;;;1.10;99.90;;;;;;5051288;28;20025;-64
2021/01/14 05:27:53;;;;;;;9.23;5.00;;;1.10;99.90;;;;;;5064633;28;20024;-63
2021/01/14 05:30:22;;;;;;;7.90;4.30;;;1.10;99.90;;;;;;5060575;28;20396;-63
2021/01/14 05:32:49;;;;;;;10.02;5.40;;;1.10;99.90;;;;;;5050993;28;20029;-63
2021/01/14 05:35:27;;;;;;;8.77;4.55;;;1.10;99.90;;;;;;5051340;28;20029;-62
2021/01/14 05:38:00;;;;;;;11.10;4.88;;;1.10;99.90;;;;;;5033950;28;20037;-63
2021/01/14 05:40:28;;;;;;;8.30;4.78;;;1.10;99.90;;;;;;5062979;28;20021;-64
2021/01/14 05:43:01;;;;;;;7.35;4.70;;;1.00;99.90;;;;;;5071941;28;20036;-62
2021/01/14 05:45:27;;;;;;;7.55;5.25;;;1.00;99.90;;;;;;5070928;28;20028;-64
2021/01/14 05:48:13;;;;;;;9.93;5.10;;;1.00;99.90;;;;;;5035006;28;20025;-63
2021/01/14 05:50:43;;;;;;;9.75;5.57;;;1.10;99.90;;;;;;5032830;28;20393;-62
2021/01/14 05:53:16;;;;;;;12.90;5.75;;;1.10;99.90;;;;;;5051678;28;20036;-62
2021/01/14 05:55:51;;;;;;;8.35;5.22;;;1.10;99.90;;;;;;5051477;28;20037;-63
2021/01/14 05:58:18;;;;;;;9.88;6.03;;;1.10;99.90;;;;;;5073814;28;20066;-63
2021/01/14 06:00:46;;;;;;;12.80;6.65;;;1.10;99.90;;;;;;5056866;28;20029;-63
2021/01/14 06:03:26;;;;;;;12.15;5.93;;;1.10;99.90;;;;;;5055718;28;20036;-63
2021/01/14 06:05:53;;;;;;;8.88;6.78;;;1.20;99.90;;;;;;5057560;28;20028;-61
2021/01/14 06:08:26;;;;;;;13.23;5.60;;;1.10;99.90;;;;;;5075441;28;20032;-62
2021/01/14 06:10:52;;;;;;;11.27;6.47;;;1.10;99.90;;;;;;5074902;28;20028;-63
2021/01/14 06:13:18;;;;;;;9.25;6.38;;;1.10;99.90;;;;;;5073462;28;20055;-62
2021/01/14 06:15:57;;;;;;;10.65;5.88;;;1.10;99.90;;;;;;5074577;28;20036;-62
2021/01/14 06:18:23;;;;;;;12.52;6.72;;;1.10;99.90;;;;;;5075054;28;20473;-62
2021/01/14 06:20:53;;;;;;;11.57;5.68;;;1.00;99.90;;;;;;5074020;28;20078;-63
2021/01/14 06:23:22;;;;;;;9.77;5.95;;;1.10;99.90;;;;;;5073269;28;20032;-62
2021/01/14 06:25:56;;;;;;;10.27;6.23;;;1.10;99.90;;;;;;5073896;28;20029;-62
2021/01/14 06:28:32;;;;;;;10.32;6.55;;;1.10;99.90;;;;;;5075016;28;20024;-62
2021/01/14 06:31:03;;;;;;;11.27;6.55;;;1.10;99.90;;;;;;5074669;28;20020;-62
2021/01/14 06:33:30;;;;;;;10.88;5.50;;;1.10;99.90;;;;;;5063188;28;20059;-64
2021/01/14 06:36:08;;;;;;;10.05;6.60;;;1.10;99.90;;;;;;5036747;28;20125;-63
2021/01/14 06:38:55;;;;;;;12.60;6.68;;;1.10;99.90;;;;;;5053986;28;20029;-63
2021/01/14 06:41:22;;;;;;;12.55;6.70;;;1.00;99.90;;;;;;5054487;28;20021;-62
2021/01/14 06:43:51;;;;;;;12.93;7.13;;;1.00;99.90;;;;;;5066871;28;20032;-62
2021/01/14 06:46:21;;;;;;;12.80;6.75;;;1.20;99.90;;;;;;5074530;28;20028;-63
2021/01/14 06:49:02;;;;;;;7.93;6.22;;;1.20;99.90;;;;;;5073894;28;20143;-62
2021/01/14 06:51:53;;;;;;;12.95;7.10;;;1.10;99.90;;;;;;5072400;28;20025;-64
2021/01/14 06:54:20;;;;;;;9.45;6.55;;;1.10;99.90;;;;;;5074777;28;20024;-63
2021/01/14 06:56:48;;;;;;;10.02;6.90;;;1.10;99.90;;;;;;5055507;28;20028;-62
2021/01/14 06:59:17;;;;;;;10.00;6.35;;;1.10;99.90;;;;;;5074535;28;20052;-63
2021/01/14 07:02:05;;;;;;;12.80;7.18;;;1.10;99.90;;;;;;5071948;28;20029;-63
2021/01/14 07:04:51;;;;;;;11.65;6.38;;;1.10;99.90;;;;;;5073990;28;20024;-64
2021/01/14 07:07:22;;;;;;;10.70;6.40;;;1.10;99.90;;;;;;5074055;28;20032;-63
2021/01/14 07:10:05;;;;;;;14.60;7.50;;;1.00;99.90;;;;;;5070548;28;20993;-63
2021/01/14 07:12:36;;;;;;;10.82;6.90;;;1.00;99.90;;;;;;5073214;28;20036;-64
2021/01/14 07:15:16;;;;;;;14.10;7.97;;;1.10;99.90;;;;;;5056507;28;20032;-63
2021/01/14 07:17:44;;;;;;;10.38;6.97;;;1.00;99.90;;;;;;5071612;28;20115;-63
2021/01/14 07:20:11;;;;;;;13.57;6.93;;;1.10;99.90;;;;;;5074345;28;20040;-64
2021/01/14 07:22:46;;;;;;;11.27;7.10;;;1.00;99.90;;;;;;5073014;28;20086;-63
2021/01/14 07:25:14;;;;;;;11.93;7.60;;;1.00;99.90;;;;;;5074042;28;20090;-62
2021/01/14 07:27:42;;;;;;;9.93;6.95;;;1.00;99.90;;;;;;5067222;28;20441;-62
2021/01/14 07:30:10;;;;;;;13.50;7.30;;;1.00;99.90;;;;;;5062393;28;20385;-63
2021/01/14 07:32:54;;;;;;;11.13;6.93;;;1.00;99.90;;;;;;5060775;28;20036;-64
2021/01/14 07:35:48;;;;;;;10.18;7.18;;;1.00;99.90;;;;;;5063056;28;20103;-63
2021/01/14 07:38:16;;;;;;;8.65;6.82;;;1.10;99.90;;;;;;5062858;28;20060;-61
2021/01/14 07:40:44;;;;;;;12.80;7.53;;;1.10;99.90;;;;;;5059287;28;20025;-61
2021/01/14 07:43:12;;;;;;;15.45;9.23;;;1.10;99.90;;;;;;5053936;28;20025;-61
2021/01/14 07:45:38;;;;;;;13.55;8.73;;;1.00;99.90;;;;;;5053709;28;20021;-61
2021/01/14 07:48:24;;;;;;;12.35;8.40;;;1.00;99.90;;;;;;5059624;28;20060;-61
2021/01/14 07:51:00;;;;;;;10.27;6.85;;;1.00;99.90;;;;;;5061296;28;20508;-61
2021/01/14 07:53:26;;;;;;;12.13;7.32;;;1.10;99.90;;;;;;5054944;28;20553;-61
2021/01/14 07:55:53;;;;;;;9.70;6.90;;;1.10;99.90;;;;;;5055108;28;20033;-61
2021/01/14 07:58:21;;;;;;;12.32;7.50;;;1.10;99.90;;;;;;5071490;28;20040;-62
2021/01/14 08:01:06;;;;;;;12.23;7.70;;;1.10;99.90;;;;;;5063350;28;20039;-63
2021/01/14 08:03:39;;;;;;;13.27;6.95;;;1.10;99.90;;;;;;5052483;28;20371;-65
2021/01/14 08:06:34;;;;;;;10.82;7.05;;;1.10;99.90;;;;;;5054521;28;20111;-61
2021/01/14 08:09:08;;;;;;;13.27;6.72;;;1.10;99.90;;;;;;5072340;28;20028;-64
2021/01/14 08:11:54;;;;;;;12.70;8.43;;;1.10;99.90;;;;;;5051493;28;20151;-65
2021/01/14 08:14:21;;;;;;;14.50;7.05;;;1.10;99.90;;;;;;5060146;28;20029;-63
2021/01/14 08:16:50;;;;;;;9.52;6.70;;;1.20;99.90;;;;;;5051659;28;20493;-63
2021/01/14 08:19:28;;;;;;;14.88;8.18;;;1.10;99.90;;;;;;5051948;28;20065;-63
2021/01/14 08:22:03;;;;;;;10.13;7.10;;;1.10;99.90;;;;;;5060516;28;20029;-63
2021/01/14 08:24:50;;;;;;;13.85;6.93;;;1.10;99.90;;;;;;5051940;28;20029;-64
2021/01/14 08:27:36;;;;;;;11.05;7.32;;;1.10;99.90;;;;;;5064079;28;20107;-64
2021/01/14 08:30:13;;;;;;;12.10;7.32;;;1.10;99.90;;;;;;5072054;28;20031;-64
2021/01/14 08:32:45;;;;;;;11.43;6.70;;;1.10;99.90;;;;;;5071339;28;20032;-63
2021/01/14 08:35:16;;;;;;;13.48;6.63;;;1.20;99.90;;;;;;5057471;28;20163;-64
2021/01/14 08:37:53;;;;;;;9.68;6.45;;;1.20;99.90;;;;;;5051052;28;20041;-64
2021/01/14 08:40:25;;;;;;;12.40;6.55;;;1.20;99.90;;;;;;5050521;28;20025;-63
2021/01/14 08:43:13;;;;;;;12.13;6.93;;;1.10;99.90;;;;;;5062394;28;20048;-64
2021/01/14 08:45:59;;;;;;;10.25;6.45;;;1.10;99.90;;;;;;5051328;28;20037;-63
2021/01/14 08:48:29;;;;;;;9.57;6.20;;;1.10;99.90;;;;;;5051875;28;20124;-63
2021/01/14 08:50:54;;;;;;;14.88;6.60;;;1.20;99.90;;;;;;5068380;28;20040;-63
2021/01/14 08:53:23;;;;;;;12.80;7.40;;;1.10;99.90;;;;;;5070230;28;20028;-63
2021/01/14 08:56:04;;;;;;;16.65;7.72;;;1.20;99.90;;;;;;5070831;28;20172;-62
2021/01/14 08:58:36;;;;;;;15.93;8.45;;;1.20;99.90;;;;;;5071029;28;20380;-64
2021/01/14 09:01:03;;;;;;;14.48;6.97;;;1.20;99.90;;;;;;5071194;28;20028;-63
2021/01/14 09:03:28;;;;;;;16.77;8.43;;;1.10;99.90;;;;;;5071500;28;20473;-64
2021/01/14 09:05:55;;;;;;;10.80;6.90;;;1.10;99.90;;;;;;5070567;28;20039;-64
2021/01/14 09:08:21;;;;;;;15.55;7.38;;;1.10;99.90;;;;;;5064506;28;20036;-64
2021/01/14 09:10:55;;;;;;;11.23;6.90;;;1.10;99.90;;;;;;5058910;28;20025;-66
2021/01/14 09:13:26;;;;;;;14.43;8.23;;;1.10;99.90;;;;;;5050667;28;20029;-63
2021/01/14 09:15:54;;;;;;;13.45;7.43;;;1.10;99.90;;;;;;5062538;28;20044;-61
2021/01/14 09:18:34;;;;;;;16.42;8.82;;;1.10;99.90;;;;;;5071102;28;20044;-61
2021/01/14 09:21:00;;;;;;;15.07;7.93;;;1.20;99.90;;;;;;5052459;28;20032;-61
2021/01/14 09:23:34;;;;;;;19.30;8.23;;;1.30;99.90;;;;;;5043189;28;20376;-62
2021/01/14 09:26:02;;;;;;;20.00;8.93;;;1.30;99.90;;;;;;5071193;28;20039;-63
2021/01/14 09:28:29;;;;;;;15.40;8.05;;;1.30;99.90;;;;;;5061643;28;20024;-63
2021/01/14 09:31:06;;;;;;;15.75;8.90;;;1.30;99.90;;;;;;5051167;28;20086;-63
2021/01/14 09:33:35;;;;;;;15.85;9.80;;;1.30;99.90;;;;;;5062914;28;20380;-65
2021/01/14 09:36:09;;;;;;;15.05;8.38;;;1.30;99.90;;;;;;5070745;28;20048;-63
2021/01/14 09:38:51;;;;;;;13.45;7.47;;;1.30;99.90;;;;;;5059790;28;20090;-65
2021/01/14 09:41:23;;;;;;;11.45;7.28;;;1.40;99.90;;;;;;5050602;28;20018;-62
2021/01/14 09:43:55;;;;;;;12.85;6.45;;;1.40;99.90;;;;;;5063462;28;20029;-64
2021/01/14 09:46:22;;;;;;;11.07;7.30;;;1.40;99.90;;;;;;5063472;28;20028;-63
2021/01/14 09:48:49;;;;;;;11.90;7.30;;;1.50;99.90;;;;;;5070276;28;20072;-64
2021/01/14 09:51:15;;;;;;;11.68;7.03;;;1.40;99.90;;;;;;5052945;28;20028;-63
2021/01/14 09:53:42;;;;;;;10.82;7.20;;;1.40;99.90;;;;;;5069994;28;20032;-64
2021/01/14 09:56:11;;;;;;;12.40;6.60;;;1.50;99.90;;;;;;5048286;28;20033;-66
2021/01/14 09:58:39;;;;;;;12.32;7.30;;;1.50;99.90;;;;;;5050903;28;20025;-64
2021/01/14 10:01:08;;;;;;;12.02;6.82;;;1.50;99.90;;;;;;5050809;28;20017;-66
2021/01/14 10:03:34;;;;;;;12.10;7.40;;;1.50;99.90;;;;;;5050302;28;20114;-64
2021/01/14 10:06:01;;;;;;;14.20;6.95;;;1.50;99.90;;;;;;5036900;28;20082;-63
2021/01/14 10:08:29;;;;;;;13.25;8.05;;;1.60;99.90;;;;;;5070676;28;20032;-66
2021/01/14 10:10:55;;;;;;;13.18;7.90;;;1.60;99.90;;;;;;5069325;28;20024;-65
2021/01/14 10:13:20;;;;;;;10.25;6.22;;;1.60;99.90;;;;;;5046743;28;20020;-64
2021/01/14 10:15:46;;;;;;;13.50;7.20;;;1.60;99.90;;;;;;5057857;28;20374;-63
2021/01/14 10:18:26;;;;;;;11.95;6.28;;;1.60;99.90;;;;;;5058445;28;20041;-66
2021/01/14 10:21:02;;;;;;;10.07;6.55;;;1.60;99.90;;;;;;5055381;28;20144;-64
2021/01/14 10:23:29;;;;;;;13.23;6.32;;;1.60;99.90;;;;;;5069427;28;20036;-63
2021/01/14 10:25:55;;;;;;;11.38;6.15;;;1.70;99.90;;;;;;5049818;28;20574;-64
2021/01/14 10:28:22;;;;;;;10.98;5.68;;;1.80;99.90;;;;;;5050290;28;20046;-63
2021/01/14 10:30:49;;;;;;;8.05;5.60;;;1.70;99.90;;;;;;5051370;28;20033;-63
2021/01/14 10:33:15;;;;;;;10.20;6.13;;;1.70;99.90;;;;;;5050733;28;20839;-61
2021/01/14 10:35:41;;;;;;;9.23;6.05;;;1.80;99.90;;;;;;5038210;28;20032;-63
2021/01/14 10:38:14;;;;;;;10.23;6.13;;;1.80;99.90;;;;;;5062563;28;20100;-63
2021/01/14 10:40:47;;;;;;;10.50;5.70;;;1.70;99.90;;;;;;5060492;28;20078;-63
2021/01/14 10:43:14;;;;;;;12.80;6.60;;;1.80;99.90;;;;;;5061137;28;20480;-62
2021/01/14 10:45:42;;;;;;;12.38;6.10;;;1.80;99.90;;;;;;5062693;28;20033;-63
2021/01/14 10:48:17;;;;;;;11.95;6.88;;;1.70;99.90;;;;;;5059932;28;20099;-63
2021/01/14 10:50:47;;;;;;;8.15;5.43;;;1.70;99.90;;;;;;5059954;28;20025;-63
2021/01/14 10:53:24;;;;;;;13.52;6.30;;;1.70;99.90;;;;;;5064324;28;20033;-62
2021/01/14 10:56:09;;;;;;;16.52;7.07;;;1.60;99.90;;;;;;5059717;28;20059;-62
2021/01/14 10:58:40;;;;;;;12.73;6.68;;;1.60;99.90;;;;;;5062398;28;20078;-64
2021/01/14 11:01:21;;;;;;;15.80;7.40;;;1.70;99.90;;;;;;5063724;28;20040;-63
2021/01/14 11:03:48;;;;;;;14.18;6.43;;;1.70;99.90;;;;;;5058939;28;20090;-63
2021/01/14 11:06:39;;;;;;;11.77;6.53;;;1.70;99.90;;;;;;5060328;28;20031;-63
2021/01/14 11:09:08;;;;;;;13.63;7.13;;;1.70;99.90;;;;;;5062671;28;20424;-62
2021/01/14 11:11:35;;;;;;;15.85;6.82;;;1.70;99.90;;;;;;5041295;28;20079;-63
2021/01/14 11:14:00;;;;;;;11.52;6.38;;;1.70;99.90;;;;;;5042038;28;20167;-62
2021/01/14 11:16:27;;;;;;;9.43;6.22;;;1.70;99.90;;;;;;5060053;28;20131;-66
2021/01/14 11:18:57;;;;;;;12.15;7.30;;;1.80;99.90;;;;;;5061952;28;20056;-63
2021/01/14 11:21:31;;;;;;;11.20;7.32;;;1.80;99.90;;;;;;5055245;28;20469;-63
2021/01/14 11:23:58;;;;;;;10.10;7.13;;;1.90;99.90;;;;;;5057479;28;20028;-63
2021/01/14 11:26:24;;;;;;;12.02;7.10;;;1.90;99.90;;;;;;5055193;28;20040;-62
2021/01/14 11:28:51;;;;;;;10.88;6.35;;;2.00;99.90;;;;;;5054920;28;20707;-62
2021/01/14 11:31:24;;;;;;;14.40;6.20;;;2.00;99.90;;;;;;5062784;28;20116;-62
2021/01/14 11:33:51;;;;;;;10.27;6.47;;;2.00;99.90;;;;;;5062684;28;20358;-62
2021/01/14 11:36:20;;;;;;;10.00;6.13;;;2.00;99.90;;;;;;5059029;28;20041;-62
2021/01/14 11:38:46;;;;;;;13.07;6.15;;;2.00;99.90;;;;;;5060447;28;20466;-62
2021/01/14 11:41:17;;;;;;;11.15;6.25;;;2.00;99.90;;;;;;5063948;28;20022;-61
2021/01/14 11:43:43;;;;;;;11.32;6.28;;;2.00;99.90;;;;;;5060896;28;20119;-67
2021/01/14 11:46:09;;;;;;;10.73;6.45;;;2.00;99.90;;;;;;5065394;28;20124;-64
2021/01/14 11:48:35;;;;;;;14.70;6.65;;;1.90;99.90;;;;;;5064587;28;20087;-68
2021/01/14 11:51:01;;;;;;;15.70;7.25;;;1.90;99.90;;;;;;5068370;28;20081;-65
2021/01/14 11:53:27;;;;;;;14.73;6.70;;;1.90;99.90;;;;;;5062848;28;20453;-64
2021/01/14 11:55:52;;;;;;;13.68;6.05;;;1.90;99.90;;;;;;5064545;28;20040;-63
2021/01/14 11:58:18;;;;;;;10.82;5.97;;;1.90;99.90;;;;;;5058407;28;20025;-64
2021/01/14 12:00:45;;;;;;;16.67;6.80;;;2.00;99.60;;;;;;5061917;28;20025;-64
2021/01/14 12:03:11;;;;;;;12.15;5.30;;;2.00;99.90;;;;;;5071050;28;20395;-64
2021/01/14 12:05:37;;;;;;;10.50;5.13;;;2.10;96.70;;;;;;5053549;28;20389;-63
2021/01/14 12:08:03;;;;;;;10.70;5.72;;;2.10;96.30;;;;;;5071801;28;20047;-63
2021/01/14 12:10:31;;;;;;;9.98;5.28;;;2.10;97.10;;;;;;5061114;28;20470;-63
2021/01/14 12:12:58;;;;;;;11.57;4.55;;;2.20;98.10;;;;;;5039545;28;20599;-65
2021/01/14 12:15:24;;;;;;;13.50;4.30;;;2.20;97.60;;;;;;5052501;28;20021;-64
2021/01/14 12:17:50;;;;;;;6.95;4.60;;;2.30;95.70;;;;;;5046416;28;20485;-65
2021/01/14 12:20:16;;;;;;;8.73;4.40;;;2.30;94.20;;;;;;5053775;28;20051;-64
2021/01/14 12:22:43;;;;;;;12.07;5.00;;;2.30;95.00;;;;;;5055119;28;20039;-66
2021/01/14 12:25:11;;;;;;;10.68;5.07;;;2.30;96.40;;;;;;5045620;28;20044;-65
2021/01/14 12:27:38;;;;;;;12.68;5.20;;;2.40;95.60;;;;;;5043790;28;20036;-66
2021/01/14 12:30:05;;;;;;;10.70;5.15;;;2.40;94.70;;;;;;5043741;28;20481;-64
2021/01/14 12:32:32;;;;;;;10.60;4.78;;;2.40;95.40;;;;;;5046022;28;20032;-64
2021/01/14 12:34:58;;;;;;;7.00;4.72;;;2.40;96.20;;;;;;5056138;28;20091;-62
2021/01/14 12:37:24;;;;;;;13.80;5.45;;;2.60;92.70;;;;;;5060339;28;20032;-63
2021/01/14 12:39:50;;;;;;;7.00;4.22;;;2.60;92.40;;;;;;5064589;28;20493;-64
2021/01/14 12:42:16;;;;;;;9.38;4.70;;;2.60;92.60;;;;;;5061698;28;20033;-65
2021/01/14 12:44:41;;;;;;;11.60;4.32;;;2.60;90.70;;;;;;5059534;28;20032;-63
2021/01/14 12:47:09;;;;;;;10.88;4.88;;;2.60;90.90;;;;;;5063570;28;20120;-63
2021/01/14 12:49:35;;;;;;;6.90;4.68;;;2.60;91.20;;;;;;5043744;28;20040;-66
2021/01/14 12:52:01;;;;;;;17.35;4.75;;;2.50;91.60;;;;;;5059029;28;20024;-72
2021/01/14 12:54:27;;;;;;;13.65;4.95;;;2.50;91.20;;;;;;5057563;28;20535;-62
2021/01/14 12:56:53;;;;;;;7.93;4.63;;;2.50;90.70;;;;;;5058629;28;20377;-62
2021/01/14 12:59:19;;;;;;;11.35;4.95;;;2.50;91.70;;;;;;5062042;28;20025;-63
2021/01/14 13:01:45;;;;;;;10.27;4.72;;;2.60;90.90;;;;;;5050738;28;20029;-62
2021/01/14 13:04:11;;;;;;;8.18;4.35;;;2.50;90.70;;;;;;5058906;28;20027;-63
2021/01/14 13:06:39;;;;;;;8.38;4.30;;;2.50;91.50;;;;;;5059823;28;20377;-62
2021/01/14 13:09:07;;;;;;;6.95;4.55;;;2.40;91.90;;;;;;5071399;28;20032;-62
2021/01/14 13:11:33;;;;;;;8.80;4.63;;;2.50;91.30;;;;;;5070577;28;20025;-62
2021/01/14 13:14:00;;;;;;;9.18;4.25;;;2.50;90.30;;;;;;5070438;28;20039;-62
2021/01/14 13:16:32;;;;;;;7.13;4.13;;;2.50;89.90;;;;;;5071352;28;20024;-62
2021/01/14 13:18:59;;;;;;;9.27;4.80;;;2.40;90.40;;;;;;5070468;28;20076;-63
2021/01/14 13:21:32;;;;;;;8.65;5.03;;;2.40;90.50;;;;;;5071310;28;20059;-62
2021/01/14 13:23:58;;;;;;;12.38;5.82;;;2.40;91.90;;;;;;5070764;28;20016;-62
2021/01/14 13:26:23;;;;;;;10.18;5.15;;;2.40;91.20;;;;;;5071541;28;20077;-59
2021/01/14 13:28:51;;;;;;;13.35;5.18;;;2.30;91.90;;;;;;5052767;28;20442;-61
2021/01/14 13:31:17;;;;;;;14.13;5.07;;;2.40;90.40;;;;;;5062288;28;20600;-62
2021/01/14 13:33:42;;;;;;;10.23;4.97;;;2.40;90.70;;;;;;5069577;28;20107;-62
2021/01/14 13:36:08;;;;;;;12.30;5.03;;;2.30;91.30;;;;;;5070935;28;20468;-62
2021/01/14 13:38:34;;;;;;;8.90;4.05;;;2.30;92.10;;;;;;5071603;28;20154;-62
2021/01/14 13:40:59;;;;;;;13.18;4.85;;;2.20;92.90;;;;;;5054152;28;20032;-61
2021/01/14 13:43:25;;;;;;;10.35;5.50;;;2.20;92.80;;;;;;5051021;28;20027;-62
2021/01/14 13:45:58;;;;;;;10.68;5.72;;;2.20;93.20;;;;;;5050422;28;20075;-61
2021/01/14 13:48:23;;;;;;;13.00;5.32;;;2.20;93.30;;;;;;5051372;28;20040;-61
2021/01/14 13:50:49;;;;;;;10.48;4.68;;;2.10;94.00;;;;;;5050409;28;20029;-61
2021/01/14 13:53:15;;;;;;;13.30;5.28;;;2.10;93.90;;;;;;5051464;28;20067;-61
2021/01/14 13:55:44;;;;;;;8.40;5.43;;;2.10;94.10;;;;;;5050576;28;20108;-63
2021/01/14 13:58:11;;;;;;;10.40;6.07;;;2.10;94.00;;;;;;5033584;28;20396;-61